sensor_id;sensor_type;location;lat;lon;timestamp;P1;durP1;ratioP1;P2;durP2;ratioP2
43088;SDS011;28709;52.030;5.652;2023-06-14T00:01:51;3.53;;;1.55;;
43088;SDS011;28709;52.030;5.652;2023-06-14T00:04:17;3.70;;;1.20;;
43088;SDS011;28709;52.030;5.652;2023-06-14T00:06:45;5.00;;;1.70;;
43088;SDS011;28709;52.030;5.652;2023-06-14T00:09:11;6.82;;;1.30;;
43088;SDS011;28709;52.030;5.652;2023-06-14T00:11:42;5.78;;;1.60;;
43088;SDS011;28709;52.030;5.652;2023-06-14T00:14:08;3.67;;;2.03;;
43088;SDS011;28709;52.030;5.652;2023-06-14T00:16:33;4.15;;;1.98;;
43088;SDS011;28709;52.030;5.652;2023-06-14T00:19:00;2.63;;;1.67;;
43088;SDS011;28709;52.030;5.652;2023-06-14T00:21:28;2.17;;;1.30;;
43088;SDS011;28709;52.030;5.652;2023-06-14T00:23:54;6.40;;;1.65;;
43088;SDS011;28709;52.030;5.652;2023-06-14T00:26:20;2.40;;;1.45;;
43088;SDS011;28709;52.030;5.652;2023-06-14T00:28:46;4.35;;;1.73;;
43088;SDS011;28709;52.030;5.652;2023-06-14T00:31:11;3.13;;;1.80;;
43088;SDS011;28709;52.030;5.652;2023-06-14T00:33:37;3.67;;;1.70;;
43088;SDS011;28709;52.030;5.652;2023-06-14T00:36:03;3.22;;;1.73;;
43088;SDS011;28709;52.030;5.652;2023-06-14T00:38:28;10.25;;;1.92;;
43088;SDS011;28709;52.030;5.652;2023-06-14T00:40:54;2.47;;;1.70;;
43088;SDS011;28709;52.030;5.652;2023-06-14T00:43:20;3.25;;;1.42;;
43088;SDS011;28709;52.030;5.652;2023-06-14T00:45:45;4.22;;;1.40;;
43088;SDS011;28709;52.030;5.652;2023-06-14T00:48:11;10.13;;;2.28;;
43088;SDS011;28709;52.030;5.652;2023-06-14T00:50:38;4.40;;;1.55;;
43088;SDS011;28709;52.030;5.652;2023-06-14T00:53:06;5.47;;;1.83;;
43088;SDS011;28709;52.030;5.652;2023-06-14T00:55:32;4.03;;;1.88;;
43088;SDS011;28709;52.030;5.652;2023-06-14T00:57:58;3.55;;;1.58;;
43088;SDS011;28709;52.030;5.652;2023-06-14T01:00:24;3.25;;;1.38;;
43088;SDS011;28709;52.030;5.652;2023-06-14T01:02:50;10.52;;;2.05;;
43088;SDS011;28709;52.030;5.652;2023-06-14T01:05:16;4.72;;;1.60;;
43088;SDS011;28709;52.030;5.652;2023-06-14T01:13:21;4.78;;;1.75;;
43088;SDS011;28709;52.030;5.652;2023-06-14T01:16:00;2.97;;;1.40;;
43088;SDS011;28709;52.030;5.652;2023-06-14T01:18:27;6.10;;;1.27;;
43088;SDS011;28709;52.030;5.652;2023-06-14T01:20:55;3.58;;;1.95;;
43088;SDS011;28709;52.030;5.652;2023-06-14T01:23:21;3.80;;;1.58;;
43088;SDS011;28709;52.030;5.652;2023-06-14T01:25:48;5.38;;;1.60;;
43088;SDS011;28709;52.030;5.652;2023-06-14T01:28:17;3.80;;;1.98;;
43088;SDS011;28709;52.030;5.652;2023-06-14T01:30:46;6.57;;;1.70;;
43088;SDS011;28709;52.030;5.652;2023-06-14T01:33:21;3.40;;;1.83;;
43088;SDS011;28709;52.030;5.652;2023-06-14T01:35:49;5.95;;;1.77;;
43088;SDS011;28709;52.030;5.652;2023-06-14T01:38:20;5.45;;;2.28;;
43088;SDS011;28709;52.030;5.652;2023-06-14T01:40:48;3.90;;;1.60;;
43088;SDS011;28709;52.030;5.652;2023-06-14T01:43:16;2.08;;;1.42;;
43088;SDS011;28709;52.030;5.652;2023-06-14T01:45:43;1.98;;;1.30;;
43088;SDS011;28709;52.030;5.652;2023-06-14T01:48:10;2.20;;;1.80;;
43088;SDS011;28709;52.030;5.652;2023-06-14T01:50:37;3.40;;;1.58;;
43088;SDS011;28709;52.030;5.652;2023-06-14T01:53:03;6.88;;;1.70;;
43088;SDS011;28709;52.030;5.652;2023-06-14T01:55:32;3.05;;;1.92;;
43088;SDS011;28709;52.030;5.652;2023-06-14T01:58:02;4.85;;;1.80;;
43088;SDS011;28709;52.030;5.652;2023-06-14T02:00:28;2.30;;;1.50;;
43088;SDS011;28709;52.030;5.652;2023-06-14T02:02:54;4.97;;;1.50;;
43088;SDS011;28709;52.030;5.652;2023-06-14T02:05:20;9.23;;;2.10;;
43088;SDS011;28709;52.030;5.652;2023-06-14T02:07:46;5.15;;;1.30;;
43088;SDS011;28709;52.030;5.652;2023-06-14T02:10:12;1.80;;;1.38;;
43088;SDS011;28709;52.030;5.652;2023-06-14T02:12:38;3.70;;;1.70;;
43088;SDS011;28709;52.030;5.652;2023-06-14T02:15:03;2.72;;;1.10;;
43088;SDS011;28709;52.030;5.652;2023-06-14T02:17:31;6.95;;;1.83;;
43088;SDS011;28709;52.030;5.652;2023-06-14T02:19:56;4.03;;;1.40;;
43088;SDS011;28709;52.030;5.652;2023-06-14T02:22:22;4.82;;;1.50;;
43088;SDS011;28709;52.030;5.652;2023-06-14T02:24:48;2.25;;;1.40;;
43088;SDS011;28709;52.030;5.652;2023-06-14T02:27:14;7.22;;;1.75;;
43088;SDS011;28709;52.030;5.652;2023-06-14T02:29:39;7.07;;;1.67;;
43088;SDS011;28709;52.030;5.652;2023-06-14T02:32:05;3.50;;;1.52;;
43088;SDS011;28709;52.030;5.652;2023-06-14T02:34:32;1.38;;;1.20;;
43088;SDS011;28709;52.030;5.652;2023-06-14T02:37:01;4.38;;;1.40;;
43088;SDS011;28709;52.030;5.652;2023-06-14T02:39:30;3.45;;;1.55;;
43088;SDS011;28709;52.030;5.652;2023-06-14T02:41:55;2.67;;;1.27;;
43088;SDS011;28709;52.030;5.652;2023-06-14T02:44:25;2.22;;;1.42;;
43088;SDS011;28709;52.030;5.652;2023-06-14T02:46:55;2.47;;;1.40;;
43088;SDS011;28709;52.030;5.652;2023-06-14T02:49:21;5.57;;;1.40;;
43088;SDS011;28709;52.030;5.652;2023-06-14T02:51:47;2.80;;;1.33;;
43088;SDS011;28709;52.030;5.652;2023-06-14T02:54:13;5.25;;;1.90;;
43088;SDS011;28709;52.030;5.652;2023-06-14T02:56:39;9.27;;;1.80;;
43088;SDS011;28709;52.030;5.652;2023-06-14T02:59:05;3.15;;;1.35;;
43088;SDS011;28709;52.030;5.652;2023-06-14T03:01:32;3.33;;;1.70;;
43088;SDS011;28709;52.030;5.652;2023-06-14T03:04:04;2.38;;;1.33;;
43088;SDS011;28709;52.030;5.652;2023-06-14T03:06:30;4.82;;;1.58;;
43088;SDS011;28709;52.030;5.652;2023-06-14T03:08:59;2.35;;;1.42;;
43088;SDS011;28709;52.030;5.652;2023-06-14T03:11:30;7.60;;;1.60;;
43088;SDS011;28709;52.030;5.652;2023-06-14T03:13:56;2.88;;;1.50;;
43088;SDS011;28709;52.030;5.652;2023-06-14T03:16:22;2.63;;;1.40;;
43088;SDS011;28709;52.030;5.652;2023-06-14T03:18:49;2.80;;;1.38;;
43088;SDS011;28709;52.030;5.652;2023-06-14T03:21:16;2.53;;;1.60;;
43088;SDS011;28709;52.030;5.652;2023-06-14T03:23:43;2.88;;;1.42;;
43088;SDS011;28709;52.030;5.652;2023-06-14T03:26:09;1.98;;;1.23;;
43088;SDS011;28709;52.030;5.652;2023-06-14T03:28:37;3.00;;;1.38;;
43088;SDS011;28709;52.030;5.652;2023-06-14T03:31:03;5.47;;;1.30;;
43088;SDS011;28709;52.030;5.652;2023-06-14T03:33:29;4.63;;;1.80;;
43088;SDS011;28709;52.030;5.652;2023-06-14T03:35:54;2.58;;;1.50;;
43088;SDS011;28709;52.030;5.652;2023-06-14T03:38:21;2.53;;;1.50;;
43088;SDS011;28709;52.030;5.652;2023-06-14T03:40:47;6.00;;;1.60;;
43088;SDS011;28709;52.030;5.652;2023-06-14T03:43:12;3.53;;;1.42;;
43088;SDS011;28709;52.030;5.652;2023-06-14T03:45:38;3.55;;;1.65;;
43088;SDS011;28709;52.030;5.652;2023-06-14T03:48:04;3.72;;;1.52;;
43088;SDS011;28709;52.030;5.652;2023-06-14T03:50:31;1.58;;;1.30;;
43088;SDS011;28709;52.030;5.652;2023-06-14T03:52:57;3.40;;;1.70;;
43088;SDS011;28709;52.030;5.652;2023-06-14T03:55:23;5.57;;;1.75;;
43088;SDS011;28709;52.030;5.652;2023-06-14T03:57:51;4.00;;;1.48;;
43088;SDS011;28709;52.030;5.652;2023-06-14T04:00:17;7.93;;;1.50;;
43088;SDS011;28709;52.030;5.652;2023-06-14T04:02:43;2.58;;;1.50;;
43088;SDS011;28709;52.030;5.652;2023-06-14T04:05:09;8.32;;;1.90;;
43088;SDS011;28709;52.030;5.652;2023-06-14T04:07:35;4.18;;;1.50;;
43088;SDS011;28709;52.030;5.652;2023-06-14T04:10:10;2.45;;;1.50;;
43088;SDS011;28709;52.030;5.652;2023-06-14T04:12:37;6.68;;;1.58;;
43088;SDS011;28709;52.030;5.652;2023-06-14T04:15:02;7.53;;;1.92;;
43088;SDS011;28709;52.030;5.652;2023-06-14T04:17:28;4.53;;;1.30;;
43088;SDS011;28709;52.030;5.652;2023-06-14T04:19:54;5.00;;;1.70;;
43088;SDS011;28709;52.030;5.652;2023-06-14T04:22:20;3.88;;;1.40;;
43088;SDS011;28709;52.030;5.652;2023-06-14T04:24:46;4.30;;;1.55;;
43088;SDS011;28709;52.030;5.652;2023-06-14T04:27:11;4.80;;;1.58;;
43088;SDS011;28709;52.030;5.652;2023-06-14T04:29:39;2.10;;;1.20;;
43088;SDS011;28709;52.030;5.652;2023-06-14T04:32:08;6.00;;;1.52;;
43088;SDS011;28709;52.030;5.652;2023-06-14T04:34:35;3.90;;;1.33;;
43088;SDS011;28709;52.030;5.652;2023-06-14T04:37:02;1.75;;;0.95;;
43088;SDS011;28709;52.030;5.652;2023-06-14T04:39:28;10.38;;;1.70;;
43088;SDS011;28709;52.030;5.652;2023-06-14T04:41:54;3.47;;;1.30;;
43088;SDS011;28709;52.030;5.652;2023-06-14T04:44:23;4.13;;;1.30;;
43088;SDS011;28709;52.030;5.652;2023-06-14T04:46:55;4.63;;;1.50;;
43088;SDS011;28709;52.030;5.652;2023-06-14T04:49:23;5.57;;;1.17;;
43088;SDS011;28709;52.030;5.652;2023-06-14T04:51:49;6.03;;;1.95;;
43088;SDS011;28709;52.030;5.652;2023-06-14T04:54:24;5.88;;;1.83;;
43088;SDS011;28709;52.030;5.652;2023-06-14T04:56:50;4.85;;;1.75;;
43088;SDS011;28709;52.030;5.652;2023-06-14T04:59:16;2.97;;;1.50;;
43088;SDS011;28709;52.030;5.652;2023-06-14T05:01:42;4.70;;;1.42;;
43088;SDS011;28709;52.030;5.652;2023-06-14T05:04:12;3.22;;;1.60;;
43088;SDS011;28709;52.030;5.652;2023-06-14T05:06:44;3.97;;;1.60;;
43088;SDS011;28709;52.030;5.652;2023-06-14T05:09:11;1.35;;;1.17;;
43088;SDS011;28709;52.030;5.652;2023-06-14T05:11:37;4.78;;;1.38;;
43088;SDS011;28709;52.030;5.652;2023-06-14T05:14:02;4.78;;;2.00;;
43088;SDS011;28709;52.030;5.652;2023-06-14T05:16:28;5.15;;;1.90;;
43088;SDS011;28709;52.030;5.652;2023-06-14T05:18:54;4.53;;;1.70;;
43088;SDS011;28709;52.030;5.652;2023-06-14T05:21:20;2.13;;;1.42;;
43088;SDS011;28709;52.030;5.652;2023-06-14T05:23:46;2.90;;;1.50;;
43088;SDS011;28709;52.030;5.652;2023-06-14T05:26:12;2.90;;;1.45;;
43088;SDS011;28709;52.030;5.652;2023-06-14T05:28:38;9.25;;;1.98;;
43088;SDS011;28709;52.030;5.652;2023-06-14T05:31:03;3.50;;;1.67;;
43088;SDS011;28709;52.030;5.652;2023-06-14T05:33:29;3.40;;;2.15;;
43088;SDS011;28709;52.030;5.652;2023-06-14T05:35:54;6.82;;;1.88;;
43088;SDS011;28709;52.030;5.652;2023-06-14T05:38:20;2.97;;;1.63;;
43088;SDS011;28709;52.030;5.652;2023-06-14T05:40:46;7.65;;;1.73;;
43088;SDS011;28709;52.030;5.652;2023-06-14T05:43:12;13.35;;;2.38;;
43088;SDS011;28709;52.030;5.652;2023-06-14T05:45:37;7.13;;;1.90;;
43088;SDS011;28709;52.030;5.652;2023-06-14T05:48:03;7.13;;;2.10;;
43088;SDS011;28709;52.030;5.652;2023-06-14T05:50:29;7.97;;;2.20;;
43088;SDS011;28709;52.030;5.652;2023-06-14T05:52:55;2.28;;;1.75;;
43088;SDS011;28709;52.030;5.652;2023-06-14T05:55:21;6.30;;;1.83;;
43088;SDS011;28709;52.030;5.652;2023-06-14T05:57:46;7.22;;;2.80;;
43088;SDS011;28709;52.030;5.652;2023-06-14T06:00:13;5.65;;;2.03;;
43088;SDS011;28709;52.030;5.652;2023-06-14T06:02:41;5.50;;;2.38;;
43088;SDS011;28709;52.030;5.652;2023-06-14T06:05:11;7.15;;;1.77;;
43088;SDS011;28709;52.030;5.652;2023-06-14T06:07:37;3.72;;;1.70;;
43088;SDS011;28709;52.030;5.652;2023-06-14T06:10:05;6.28;;;2.05;;
43088;SDS011;28709;52.030;5.652;2023-06-14T06:12:31;5.13;;;1.88;;
43088;SDS011;28709;52.030;5.652;2023-06-14T06:14:57;2.67;;;1.77;;
43088;SDS011;28709;52.030;5.652;2023-06-14T06:17:24;4.63;;;1.67;;
43088;SDS011;28709;52.030;5.652;2023-06-14T06:19:53;6.03;;;2.10;;
43088;SDS011;28709;52.030;5.652;2023-06-14T06:22:19;3.30;;;1.75;;
43088;SDS011;28709;52.030;5.652;2023-06-14T06:24:45;3.72;;;1.80;;
43088;SDS011;28709;52.030;5.652;2023-06-14T06:27:11;2.30;;;1.52;;
43088;SDS011;28709;52.030;5.652;2023-06-14T06:29:37;5.30;;;2.03;;
43088;SDS011;28709;52.030;5.652;2023-06-14T06:32:03;3.45;;;1.50;;
43088;SDS011;28709;52.030;5.652;2023-06-14T06:34:29;3.17;;;1.50;;
43088;SDS011;28709;52.030;5.652;2023-06-14T06:36:55;6.18;;;2.03;;
43088;SDS011;28709;52.030;5.652;2023-06-14T06:39:21;3.33;;;1.90;;
43088;SDS011;28709;52.030;5.652;2023-06-14T06:41:46;4.47;;;2.00;;
43088;SDS011;28709;52.030;5.652;2023-06-14T06:44:12;3.15;;;1.95;;
43088;SDS011;28709;52.030;5.652;2023-06-14T06:46:38;7.07;;;2.13;;
43088;SDS011;28709;52.030;5.652;2023-06-14T06:49:06;5.28;;;1.85;;
43088;SDS011;28709;52.030;5.652;2023-06-14T06:51:32;5.85;;;1.85;;
43088;SDS011;28709;52.030;5.652;2023-06-14T06:53:57;4.68;;;2.20;;
43088;SDS011;28709;52.030;5.652;2023-06-14T06:56:23;3.22;;;1.58;;
43088;SDS011;28709;52.030;5.652;2023-06-14T06:58:49;4.47;;;1.85;;
43088;SDS011;28709;52.030;5.652;2023-06-14T07:01:16;3.92;;;2.10;;
43088;SDS011;28709;52.030;5.652;2023-06-14T07:03:42;9.73;;;2.00;;
43088;SDS011;28709;52.030;5.652;2023-06-14T07:06:08;2.42;;;1.40;;
43088;SDS011;28709;52.030;5.652;2023-06-14T07:08:33;2.75;;;1.52;;
43088;SDS011;28709;52.030;5.652;2023-06-14T07:10:59;2.40;;;1.80;;
43088;SDS011;28709;52.030;5.652;2023-06-14T07:13:25;2.22;;;1.70;;
43088;SDS011;28709;52.030;5.652;2023-06-14T07:15:53;3.75;;;1.83;;
43088;SDS011;28709;52.030;5.652;2023-06-14T07:18:20;2.20;;;1.55;;
43088;SDS011;28709;52.030;5.652;2023-06-14T07:20:46;5.55;;;1.83;;
43088;SDS011;28709;52.030;5.652;2023-06-14T07:23:12;5.60;;;2.17;;
43088;SDS011;28709;52.030;5.652;2023-06-14T07:25:38;7.15;;;1.95;;
43088;SDS011;28709;52.030;5.652;2023-06-14T07:28:03;3.97;;;1.70;;
43088;SDS011;28709;52.030;5.652;2023-06-14T07:30:29;6.75;;;1.58;;
43088;SDS011;28709;52.030;5.652;2023-06-14T07:32:55;7.65;;;1.88;;
43088;SDS011;28709;52.030;5.652;2023-06-14T07:35:21;4.80;;;1.48;;
43088;SDS011;28709;52.030;5.652;2023-06-14T07:37:47;8.00;;;1.70;;
43088;SDS011;28709;52.030;5.652;2023-06-14T07:40:13;3.10;;;1.23;;
43088;SDS011;28709;52.030;5.652;2023-06-14T07:42:39;2.22;;;1.38;;
43088;SDS011;28709;52.030;5.652;2023-06-14T07:45:04;4.68;;;1.30;;
43088;SDS011;28709;52.030;5.652;2023-06-14T07:47:31;3.78;;;1.27;;
43088;SDS011;28709;52.030;5.652;2023-06-14T07:49:56;2.72;;;1.30;;
43088;SDS011;28709;52.030;5.652;2023-06-14T07:52:22;4.60;;;1.50;;
43088;SDS011;28709;52.030;5.652;2023-06-14T07:54:48;4.75;;;1.40;;
43088;SDS011;28709;52.030;5.652;2023-06-14T07:57:13;1.38;;;1.10;;
43088;SDS011;28709;52.030;5.652;2023-06-14T07:59:39;2.10;;;1.30;;
43088;SDS011;28709;52.030;5.652;2023-06-14T08:02:05;3.00;;;1.27;;
43088;SDS011;28709;52.030;5.652;2023-06-14T08:04:31;3.60;;;0.95;;
43088;SDS011;28709;52.030;5.652;2023-06-14T08:06:58;1.75;;;1.20;;
43088;SDS011;28709;52.030;5.652;2023-06-14T08:09:27;4.30;;;1.17;;
43088;SDS011;28709;52.030;5.652;2023-06-14T08:11:53;1.98;;;1.20;;
43088;SDS011;28709;52.030;5.652;2023-06-14T08:14:19;3.80;;;1.17;;
43088;SDS011;28709;52.030;5.652;2023-06-14T08:16:45;4.35;;;1.33;;
43088;SDS011;28709;52.030;5.652;2023-06-14T08:19:11;5.72;;;1.27;;
43088;SDS011;28709;52.030;5.652;2023-06-14T08:21:37;2.88;;;1.33;;
43088;SDS011;28709;52.030;5.652;2023-06-14T08:24:02;3.25;;;1.13;;
43088;SDS011;28709;52.030;5.652;2023-06-14T08:26:29;2.05;;;1.10;;
43088;SDS011;28709;52.030;5.652;2023-06-14T08:28:55;6.57;;;1.60;;
43088;SDS011;28709;52.030;5.652;2023-06-14T08:31:21;1.92;;;0.93;;
43088;SDS011;28709;52.030;5.652;2023-06-14T08:33:47;2.55;;;1.08;;
43088;SDS011;28709;52.030;5.652;2023-06-14T08:36:12;5.70;;;1.13;;
43088;SDS011;28709;52.030;5.652;2023-06-14T08:38:39;1.98;;;0.90;;
43088;SDS011;28709;52.030;5.652;2023-06-14T08:41:05;3.58;;;1.17;;
43088;SDS011;28709;52.030;5.652;2023-06-14T08:43:31;1.58;;;0.90;;
43088;SDS011;28709;52.030;5.652;2023-06-14T08:45:58;1.02;;;0.90;;
43088;SDS011;28709;52.030;5.652;2023-06-14T08:48:27;4.50;;;1.17;;
43088;SDS011;28709;52.030;5.652;2023-06-14T08:50:56;4.38;;;1.65;;
43088;SDS011;28709;52.030;5.652;2023-06-14T08:56:07;2.53;;;1.33;;
43088;SDS011;28709;52.030;5.652;2023-06-14T08:58:38;2.15;;;1.20;;
43088;SDS011;28709;52.030;5.652;2023-06-14T09:01:08;3.42;;;1.42;;
43088;SDS011;28709;52.030;5.652;2023-06-14T09:03:37;2.45;;;1.00;;
43088;SDS011;28709;52.030;5.652;2023-06-14T09:06:05;3.53;;;0.80;;
43088;SDS011;28709;52.030;5.652;2023-06-14T09:08:33;2.95;;;1.40;;
43088;SDS011;28709;52.030;5.652;2023-06-14T09:11:01;4.75;;;1.35;;
43088;SDS011;28709;52.030;5.652;2023-06-14T09:13:27;3.28;;;1.20;;
43088;SDS011;28709;52.030;5.652;2023-06-14T09:15:52;1.95;;;1.00;;
43088;SDS011;28709;52.030;5.652;2023-06-14T09:18:19;1.83;;;0.82;;
43088;SDS011;28709;52.030;5.652;2023-06-14T09:20:46;1.20;;;1.10;;
43088;SDS011;28709;52.030;5.652;2023-06-14T09:23:13;3.42;;;1.30;;
43088;SDS011;28709;52.030;5.652;2023-06-14T09:25:45;2.15;;;1.20;;
43088;SDS011;28709;52.030;5.652;2023-06-14T09:28:11;3.33;;;1.13;;
43088;SDS011;28709;52.030;5.652;2023-06-14T09:30:37;2.28;;;1.10;;
43088;SDS011;28709;52.030;5.652;2023-06-14T09:33:03;1.17;;;1.02;;
43088;SDS011;28709;52.030;5.652;2023-06-14T09:35:30;3.42;;;1.17;;
43088;SDS011;28709;52.030;5.652;2023-06-14T09:37:56;2.95;;;1.20;;
43088;SDS011;28709;52.030;5.652;2023-06-14T09:40:22;1.73;;;0.73;;
43088;SDS011;28709;52.030;5.652;2023-06-14T09:42:48;1.10;;;1.00;;
43088;SDS011;28709;52.030;5.652;2023-06-14T09:45:15;1.02;;;0.90;;
43088;SDS011;28709;52.030;5.652;2023-06-14T09:47:46;4.65;;;1.23;;
43088;SDS011;28709;52.030;5.652;2023-06-14T09:50:14;7.55;;;1.20;;
43088;SDS011;28709;52.030;5.652;2023-06-14T09:52:40;1.20;;;0.77;;
43088;SDS011;28709;52.030;5.652;2023-06-14T09:55:11;2.38;;;0.93;;
43088;SDS011;28709;52.030;5.652;2023-06-14T09:57:39;4.80;;;1.92;;
43088;SDS011;28709;52.030;5.652;2023-06-14T10:00:10;4.53;;;1.58;;
43088;SDS011;28709;52.030;5.652;2023-06-14T10:02:39;3.05;;;1.17;;
43088;SDS011;28709;52.030;5.652;2023-06-14T10:05:12;0.90;;;0.90;;
43088;SDS011;28709;52.030;5.652;2023-06-14T10:07:44;1.02;;;0.80;;
43088;SDS011;28709;52.030;5.652;2023-06-14T10:10:12;1.08;;;0.90;;
43088;SDS011;28709;52.030;5.652;2023-06-14T10:12:38;2.38;;;1.00;;
43088;SDS011;28709;52.030;5.652;2023-06-14T10:15:05;3.75;;;0.93;;
43088;SDS011;28709;52.030;5.652;2023-06-14T10:17:47;1.23;;;1.13;;
43088;SDS011;28709;52.030;5.652;2023-06-14T10:23:24;2.40;;;1.10;;
43088;SDS011;28709;52.030;5.652;2023-06-14T10:25:56;2.58;;;1.35;;
43088;SDS011;28709;52.030;5.652;2023-06-14T10:28:22;2.30;;;1.20;;
43088;SDS011;28709;52.030;5.652;2023-06-14T10:33:29;1.77;;;0.70;;
43088;SDS011;28709;52.030;5.652;2023-06-14T10:36:07;0.93;;;0.77;;
43088;SDS011;28709;52.030;5.652;2023-06-14T10:38:33;3.40;;;0.90;;
43088;SDS011;28709;52.030;5.652;2023-06-14T10:41:01;0.70;;;0.70;;
43088;SDS011;28709;52.030;5.652;2023-06-14T10:43:27;0.75;;;0.63;;
43088;SDS011;28709;52.030;5.652;2023-06-14T10:46:15;2.45;;;1.00;;
43088;SDS011;28709;52.030;5.652;2023-06-14T10:48:43;2.03;;;0.80;;
43088;SDS011;28709;52.030;5.652;2023-06-14T10:51:16;1.33;;;0.80;;
43088;SDS011;28709;52.030;5.652;2023-06-14T10:53:46;0.90;;;0.90;;
43088;SDS011;28709;52.030;5.652;2023-06-14T10:56:23;2.15;;;0.85;;
43088;SDS011;28709;52.030;5.652;2023-06-14T10:58:51;1.02;;;0.93;;
43088;SDS011;28709;52.030;5.652;2023-06-14T11:01:19;4.15;;;1.25;;
43088;SDS011;28709;52.030;5.652;2023-06-14T11:04:09;2.80;;;1.00;;
43088;SDS011;28709;52.030;5.652;2023-06-14T11:12:09;4.57;;;1.20;;
43088;SDS011;28709;52.030;5.652;2023-06-14T11:14:38;1.20;;;1.10;;
43088;SDS011;28709;52.030;5.652;2023-06-14T11:17:05;1.60;;;0.90;;
43088;SDS011;28709;52.030;5.652;2023-06-14T11:19:30;1.42;;;1.00;;
43088;SDS011;28709;52.030;5.652;2023-06-14T11:21:56;5.10;;;1.15;;
43088;SDS011;28709;52.030;5.652;2023-06-14T11:24:22;1.23;;;0.90;;
43088;SDS011;28709;52.030;5.652;2023-06-14T11:26:48;1.90;;;0.80;;
43088;SDS011;28709;52.030;5.652;2023-06-14T11:29:15;1.38;;;0.90;;
43088;SDS011;28709;52.030;5.652;2023-06-14T11:31:45;2.65;;;0.90;;
43088;SDS011;28709;52.030;5.652;2023-06-14T11:34:11;4.03;;;1.05;;
43088;SDS011;28709;52.030;5.652;2023-06-14T11:36:38;0.82;;;0.70;;
43088;SDS011;28709;52.030;5.652;2023-06-14T11:39:05;2.05;;;0.90;;
43088;SDS011;28709;52.030;5.652;2023-06-14T11:41:44;3.15;;;1.20;;
43088;SDS011;28709;52.030;5.652;2023-06-14T11:44:10;3.00;;;1.00;;
43088;SDS011;28709;52.030;5.652;2023-06-14T11:46:36;2.03;;;0.98;;
43088;SDS011;28709;52.030;5.652;2023-06-14T11:49:03;2.85;;;1.23;;
43088;SDS011;28709;52.030;5.652;2023-06-14T11:51:30;1.30;;;1.20;;
43088;SDS011;28709;52.030;5.652;2023-06-14T11:53:57;1.73;;;0.80;;
43088;SDS011;28709;52.030;5.652;2023-06-14T11:56:23;1.25;;;1.15;;
43088;SDS011;28709;52.030;5.652;2023-06-14T11:58:50;4.43;;;1.05;;
43088;SDS011;28709;52.030;5.652;2023-06-14T12:01:16;0.80;;;0.80;;
43088;SDS011;28709;52.030;5.652;2023-06-14T12:03:52;2.45;;;1.02;;
43088;SDS011;28709;52.030;5.652;2023-06-14T12:06:27;4.00;;;1.20;;
43088;SDS011;28709;52.030;5.652;2023-06-14T12:08:55;1.88;;;0.90;;
43088;SDS011;28709;52.030;5.652;2023-06-14T12:11:21;3.05;;;1.10;;
43088;SDS011;28709;52.030;5.652;2023-06-14T12:13:47;1.48;;;1.00;;
43088;SDS011;28709;52.030;5.652;2023-06-14T12:16:14;3.30;;;0.73;;
43088;SDS011;28709;52.030;5.652;2023-06-14T12:18:40;5.70;;;1.00;;
43088;SDS011;28709;52.030;5.652;2023-06-14T12:21:09;4.00;;;1.10;;
43088;SDS011;28709;52.030;5.652;2023-06-14T12:23:53;4.05;;;1.23;;
43088;SDS011;28709;52.030;5.652;2023-06-14T12:26:19;0.85;;;0.80;;
43088;SDS011;28709;52.030;5.652;2023-06-14T12:28:46;2.50;;;1.10;;
43088;SDS011;28709;52.030;5.652;2023-06-14T12:31:13;2.42;;;1.10;;
43088;SDS011;28709;52.030;5.652;2023-06-14T12:33:40;2.53;;;1.20;;
43088;SDS011;28709;52.030;5.652;2023-06-14T12:36:06;2.45;;;1.00;;
43088;SDS011;28709;52.030;5.652;2023-06-14T12:38:33;0.95;;;0.85;;
43088;SDS011;28709;52.030;5.652;2023-06-14T12:41:00;1.92;;;0.98;;
43088;SDS011;28709;52.030;5.652;2023-06-14T12:43:26;4.05;;;1.10;;
43088;SDS011;28709;52.030;5.652;2023-06-14T12:45:52;1.40;;;1.15;;
43088;SDS011;28709;52.030;5.652;2023-06-14T12:48:19;2.30;;;1.20;;
43088;SDS011;28709;52.030;5.652;2023-06-14T12:50:45;5.85;;;1.10;;
43088;SDS011;28709;52.030;5.652;2023-06-14T12:53:10;1.08;;;0.80;;
43088;SDS011;28709;52.030;5.652;2023-06-14T12:55:36;2.33;;;1.02;;
43088;SDS011;28709;52.030;5.652;2023-06-14T12:58:02;2.25;;;1.10;;
43088;SDS011;28709;52.030;5.652;2023-06-14T13:00:27;4.35;;;1.15;;
43088;SDS011;28709;52.030;5.652;2023-06-14T13:02:55;4.40;;;1.10;;
43088;SDS011;28709;52.030;5.652;2023-06-14T13:05:24;1.10;;;1.00;;
43088;SDS011;28709;52.030;5.652;2023-06-14T13:07:50;1.38;;;0.95;;
43088;SDS011;28709;52.030;5.652;2023-06-14T13:10:16;1.55;;;1.05;;
43088;SDS011;28709;52.030;5.652;2023-06-14T13:12:42;1.95;;;0.90;;
43088;SDS011;28709;52.030;5.652;2023-06-14T13:15:07;4.00;;;1.10;;
43088;SDS011;28709;52.030;5.652;2023-06-14T13:17:34;3.28;;;1.13;;
43088;SDS011;28709;52.030;5.652;2023-06-14T13:20:06;2.05;;;0.95;;
43088;SDS011;28709;52.030;5.652;2023-06-14T13:22:33;5.10;;;1.10;;
43088;SDS011;28709;52.030;5.652;2023-06-14T13:24:59;0.82;;;0.70;;
43088;SDS011;28709;52.030;5.652;2023-06-14T13:27:26;0.70;;;0.52;;
43088;SDS011;28709;52.030;5.652;2023-06-14T13:29:52;3.22;;;1.40;;
43088;SDS011;28709;52.030;5.652;2023-06-14T13:32:20;0.60;;;0.57;;
43088;SDS011;28709;52.030;5.652;2023-06-14T13:34:47;0.90;;;0.75;;
43088;SDS011;28709;52.030;5.652;2023-06-14T13:37:12;2.85;;;1.00;;
43088;SDS011;28709;52.030;5.652;2023-06-14T13:39:38;1.50;;;0.77;;
43088;SDS011;28709;52.030;5.652;2023-06-14T13:42:04;0.47;;;0.47;;
43088;SDS011;28709;52.030;5.652;2023-06-14T13:44:30;2.60;;;0.75;;
43088;SDS011;28709;52.030;5.652;2023-06-14T13:46:55;5.28;;;1.10;;
43088;SDS011;28709;52.030;5.652;2023-06-14T13:49:21;2.90;;;0.90;;
43088;SDS011;28709;52.030;5.652;2023-06-14T13:51:47;2.17;;;0.82;;
43088;SDS011;28709;52.030;5.652;2023-06-14T13:54:13;0.60;;;0.60;;
43088;SDS011;28709;52.030;5.652;2023-06-14T13:56:41;5.00;;;0.93;;
43088;SDS011;28709;52.030;5.652;2023-06-14T13:59:07;3.17;;;1.17;;
43088;SDS011;28709;52.030;5.652;2023-06-14T14:01:33;3.50;;;0.50;;
43088;SDS011;28709;52.030;5.652;2023-06-14T14:03:58;7.50;;;1.42;;
43088;SDS011;28709;52.030;5.652;2023-06-14T14:06:25;1.48;;;0.80;;
43088;SDS011;28709;52.030;5.652;2023-06-14T14:08:52;1.45;;;0.70;;
43088;SDS011;28709;52.030;5.652;2023-06-14T14:11:17;1.83;;;0.80;;
43088;SDS011;28709;52.030;5.652;2023-06-14T14:13:43;2.70;;;0.60;;
43088;SDS011;28709;52.030;5.652;2023-06-14T14:16:09;0.50;;;0.50;;
43088;SDS011;28709;52.030;5.652;2023-06-14T14:18:35;0.80;;;0.60;;
43088;SDS011;28709;52.030;5.652;2023-06-14T14:21:02;6.07;;;1.00;;
43088;SDS011;28709;52.030;5.652;2023-06-14T14:23:28;1.65;;;1.10;;
43088;SDS011;28709;52.030;5.652;2023-06-14T14:25:54;1.45;;;0.70;;
43088;SDS011;28709;52.030;5.652;2023-06-14T14:28:19;1.98;;;1.02;;
43088;SDS011;28709;52.030;5.652;2023-06-14T14:30:45;3.45;;;0.90;;
43088;SDS011;28709;52.030;5.652;2023-06-14T14:33:12;4.07;;;0.88;;
43088;SDS011;28709;52.030;5.652;2023-06-14T14:35:44;0.95;;;0.88;;
43088;SDS011;28709;52.030;5.652;2023-06-14T14:38:16;3.38;;;0.95;;
43088;SDS011;28709;52.030;5.652;2023-06-14T14:40:42;1.98;;;0.95;;
43088;SDS011;28709;52.030;5.652;2023-06-14T14:43:09;0.95;;;0.80;;
43088;SDS011;28709;52.030;5.652;2023-06-14T14:45:35;2.45;;;0.60;;
43088;SDS011;28709;52.030;5.652;2023-06-14T14:48:01;2.72;;;0.90;;
43088;SDS011;28709;52.030;5.652;2023-06-14T14:50:28;2.50;;;0.80;;
43088;SDS011;28709;52.030;5.652;2023-06-14T14:52:53;0.93;;;0.50;;
43088;SDS011;28709;52.030;5.652;2023-06-14T14:55:19;1.75;;;0.88;;
43088;SDS011;28709;52.030;5.652;2023-06-14T14:57:45;1.35;;;0.80;;
43088;SDS011;28709;52.030;5.652;2023-06-14T15:00:11;0.75;;;0.55;;
43088;SDS011;28709;52.030;5.652;2023-06-14T15:02:37;0.77;;;0.75;;
43088;SDS011;28709;52.030;5.652;2023-06-14T15:05:03;3.90;;;0.82;;
43088;SDS011;28709;52.030;5.652;2023-06-14T15:07:29;0.73;;;0.60;;